Zlatoust — UZDA — position and weather

sailwx.info

Track history (hours):
 
Tides and Currents Weather Stations Pressure Air Temp Water Temp Dewpoint Dewpoint Depression Visibility Wind Speed Wind Dir Waves Ship Positions

Zlatoust

Last reported at 2018-Jul-16 06:31 UTC. Time now 2018-Jul-16 06:43 UTC.
Position N 45°14' E 019°51'.

Length 32 m; draft 2 m.

Type: Ship. MMSI: 272029700.

Date/timePositionNaut miles runAvg speedWind from/ knotsBaromVisibWave heightAir tempDewpointWater temp
2018-Jul-16 06:31N 45°14' E 019°51'2 3.7
2018-Jul-16 06:00N 45°16' E 019°52'2 3.7
2018-Jul-16 05:31N 45°15' E 019°54'2 4.2
2018-Jul-16 05:01N 45°13' E 019°56'2 4.3
2018-Jul-16 04:30N 45°12' E 019°57'2 4.4
2018-Jul-16 04:01N 45°11' E 020°00'2 4.5
2018-Jul-16 03:31N 45°10' E 020°03'2 4.2
2018-Jul-16 03:00N 45°10' E 020°06'2 4.1
2018-Jul-16 02:30N 45°11' E 020°09'2 4.0
2018-Jul-16 02:01N 45°11' E 020°12'2 4.3
2018-Jul-16 01:31N 45°10' E 020°14'2 4.4
2018-Jul-16 00:57N 45°08' E 020°17'2 4.5
2018-Jul-16 00:31N 45°06' E 020°18'2 4.2
2018-Jul-16 00:00N 45°04' E 020°20'2 4.5
2018-Jul-15 23:31N 45°02' E 020°22'2 4.0
2018-Jul-15 23:00N 45°00' E 020°21'2 4.5
2018-Jul-15 22:30N 44°60' E 020°18'2 4.3
2018-Jul-15 22:01N 44°58' E 020°17'2 4.4
2018-Jul-15 21:31N 44°56' E 020°19'2 4.7
2018-Jul-15 21:01N 44°54' E 020°21'2 4.8
2018-Jul-15 20:30N 44°52' E 020°23'2 4.7
2018-Jul-15 20:01N 44°51' E 020°26'2 4.5
2018-Jul-15 19:30N 44°50' E 020°29'0 0.0
2018-Jul-15 19:00N 44°50' E 020°29'0 0.0
2018-Jul-15 18:31N 44°50' E 020°29'0 0.9
2018-Jul-15 18:01N 44°50' E 020°29'2 4.3
2018-Jul-15 17:31N 44°50' E 020°32'2 4.4
2018-Jul-15 17:01N 44°51' E 020°35'2 4.1
2018-Jul-15 16:31N 44°51' E 020°38'2 4.1
2018-Jul-15 16:01N 44°49' E 020°39'2 4.5
2018-Jul-15 15:30N 44°47' E 020°38'2 4.4
2018-Jul-15 15:00N 44°45' E 020°39'2 4.4
2018-Jul-15 14:30N 44°44' E 020°41'2 4.6
2018-Jul-15 14:00N 44°42' E 020°43'2 4.5
2018-Jul-15 13:30N 44°40' E 020°45'2 4.2
2018-Jul-15 13:00N 44°40' E 020°48'2 4.3
2018-Jul-15 12:30N 44°40' E 020°51'2 4.5
2018-Jul-15 12:00N 44°40' E 020°54'1 1.8
2018-Jul-15 11:30N 44°40' E 020°55'0 0.1
2018-Jul-15 11:01N 44°40' E 020°55'0 0.2
2018-Jul-15 10:30N 44°40' E 020°55'0 0.3
2018-Jul-15 10:00N 44°40' E 020°55'0 0.1
2018-Jul-15 07:30N 44°40' E 020°55'0 0.5
2018-Jul-15 07:00N 44°40' E 020°55'2 3.4
2018-Jul-15 06:30N 44°41' E 020°57'1 1.7
2018-Jul-15 05:46N 44°42' E 020°58'0 0.2
2018-Jul-15 05:30N 44°42' E 020°58'1 1.5
2018-Jul-15 05:01N 44°42' E 020°58'0 0.0
2018-Jul-15 04:30N 44°42' E 020°58'1 1.4
2018-Jul-15 03:59N 44°42' E 020°58'0 0.1
2018-Jul-15 03:28N 44°42' E 020°58'0 0.0
2018-Jul-15 03:01N 44°42' E 020°58'0 0.0
2018-Jul-15 02:30N 44°42' E 020°58'0 0.0
2018-Jul-15 01:57N 44°42' E 020°58'19 2.3
2018-Jul-14 17:47N 44°47' E 021°24'1 3.9
2018-Jul-14 17:26N 44°46' E 021°26'2 3.7
2018-Jul-14 17:00N 44°47' E 021°28'2 3.4
2018-Jul-14 16:30N 44°46' E 021°31'0 0.0
2018-Jul-14 10:24N 44°46' E 021°31'2 3.3
2018-Jul-14 09:53N 44°46' E 021°33'4 3.3
2018-Jul-14 08:39N 44°43' E 021°37'0 3.3
2018-Jul-14 08:30N 44°43' E 021°37'18 3.4
2018-Jul-14 03:16N 44°36' E 022°01'1 3.5
2018-Jul-14 03:01N 44°36' E 022°02'2 4.1
2018-Jul-14 02:31N 44°33' E 022°02'2 4.0
2018-Jul-14 02:01N 44°32' E 022°04'2 4.0
2018-Jul-14 01:31N 44°30' E 022°05'2 4.1
2018-Jul-14 01:01N 44°29' E 022°07'2 4.2
2018-Jul-14 00:31N 44°28' E 022°10'2 4.0
2018-Jul-14 00:00N 44°30' E 022°12'  
Track history (hours):
 
Tides and Currents Weather Stations Pressure Air Temp Water Temp Dewpoint Dewpoint Depression Visibility Wind Speed Wind Dir Waves Ship Positions

Zlatoust

Last reported at 2018-Jul-16 06:31 UTC. Time now 2018-Jul-16 06:43 UTC.
Position N 45°14' E 019°51'.

Length 32 m; draft 2 m.

Type: Ship. MMSI: 272029700.

Date/timePositionNaut miles runAvg speedWind from/ knotsBaromVisibWave heightAir tempDewpointWater temp
2018-Jul-16 06:31N 45°14' E 019°51'2 3.7
2018-Jul-16 06:00N 45°16' E 019°52'2 3.7
2018-Jul-16 05:31N 45°15' E 019°54'2 4.2
2018-Jul-16 05:01N 45°13' E 019°56'2 4.3
2018-Jul-16 04:30N 45°12' E 019°57'2 4.4
2018-Jul-16 04:01N 45°11' E 020°00'2 4.5
2018-Jul-16 03:31N 45°10' E 020°03'2 4.2
2018-Jul-16 03:00N 45°10' E 020°06'2 4.1
2018-Jul-16 02:30N 45°11' E 020°09'2 4.0
2018-Jul-16 02:01N 45°11' E 020°12'2 4.3
2018-Jul-16 01:31N 45°10' E 020°14'2 4.4
2018-Jul-16 00:57N 45°08' E 020°17'2 4.5
2018-Jul-16 00:31N 45°06' E 020°18'2 4.2
2018-Jul-16 00:00N 45°04' E 020°20'2 4.5
2018-Jul-15 23:31N 45°02' E 020°22'2 4.0
2018-Jul-15 23:00N 45°00' E 020°21'2 4.5
2018-Jul-15 22:30N 44°60' E 020°18'2 4.3
2018-Jul-15 22:01N 44°58' E 020°17'2 4.4
2018-Jul-15 21:31N 44°56' E 020°19'2 4.7
2018-Jul-15 21:01N 44°54' E 020°21'2 4.8
2018-Jul-15 20:30N 44°52' E 020°23'2 4.7
2018-Jul-15 20:01N 44°51' E 020°26'2 4.5
2018-Jul-15 19:30N 44°50' E 020°29'0 0.0
2018-Jul-15 19:00N 44°50' E 020°29'0 0.0
2018-Jul-15 18:31N 44°50' E 020°29'0 0.9
2018-Jul-15 18:01N 44°50' E 020°29'2 4.3
2018-Jul-15 17:31N 44°50' E 020°32'2 4.4
2018-Jul-15 17:01N 44°51' E 020°35'2 4.1
2018-Jul-15 16:31N 44°51' E 020°38'2 4.1
2018-Jul-15 16:01N 44°49' E 020°39'2 4.5
2018-Jul-15 15:30N 44°47' E 020°38'2 4.4
2018-Jul-15 15:00N 44°45' E 020°39'2 4.4
2018-Jul-15 14:30N 44°44' E 020°41'2 4.6
2018-Jul-15 14:00N 44°42' E 020°43'2 4.5
2018-Jul-15 13:30N 44°40' E 020°45'2 4.2
2018-Jul-15 13:00N 44°40' E 020°48'2 4.3
2018-Jul-15 12:30N 44°40' E 020°51'2 4.5
2018-Jul-15 12:00N 44°40' E 020°54'1 1.8
2018-Jul-15 11:30N 44°40' E 020°55'0 0.1
2018-Jul-15 11:01N 44°40' E 020°55'0 0.2
2018-Jul-15 10:30N 44°40' E 020°55'0 0.3
2018-Jul-15 10:00N 44°40' E 020°55'0 0.1
2018-Jul-15 07:30N 44°40' E 020°55'0 0.5
2018-Jul-15 07:00N 44°40' E 020°55'2 3.4
2018-Jul-15 06:30N 44°41' E 020°57'1 1.7
2018-Jul-15 05:46N 44°42' E 020°58'0 0.2
2018-Jul-15 05:30N 44°42' E 020°58'1 1.5
2018-Jul-15 05:01N 44°42' E 020°58'0 0.0
2018-Jul-15 04:30N 44°42' E 020°58'1 1.4
2018-Jul-15 03:59N 44°42' E 020°58'0 0.1
2018-Jul-15 03:28N 44°42' E 020°58'0 0.0
2018-Jul-15 03:01N 44°42' E 020°58'0 0.0
2018-Jul-15 02:30N 44°42' E 020°58'0 0.0
2018-Jul-15 01:57N 44°42' E 020°58'19 2.3
2018-Jul-14 17:47N 44°47' E 021°24'1 3.9
2018-Jul-14 17:26N 44°46' E 021°26'2 3.7
2018-Jul-14 17:00N 44°47' E 021°28'2 3.4
2018-Jul-14 16:30N 44°46' E 021°31'0 0.0
2018-Jul-14 10:24N 44°46' E 021°31'2 3.3
2018-Jul-14 09:53N 44°46' E 021°33'4 3.3
2018-Jul-14 08:39N 44°43' E 021°37'0 3.3
2018-Jul-14 08:30N 44°43' E 021°37'18 3.4
2018-Jul-14 03:16N 44°36' E 022°01'1 3.5
2018-Jul-14 03:01N 44°36' E 022°02'2 4.1
2018-Jul-14 02:31N 44°33' E 022°02'2 4.0
2018-Jul-14 02:01N 44°32' E 022°04'2 4.0
2018-Jul-14 01:31N 44°30' E 022°05'2 4.1
2018-Jul-14 01:01N 44°29' E 022°07'2 4.2
2018-Jul-14 00:31N 44°28' E 022°10'2 4.0
2018-Jul-14 00:00N 44°30' E 022°12'  

Dump ship's entire track history